Impacts METAR Board
IDs:

KLAX - Los Angeles Intl, CA, US

Updated at: 2000 UTC 23 Sep 2018
Potential Impact None Slight Moderate High
Time 23/08Z 23/09Z 23/10Z 23/11Z 23/12Z 23/13Z 23/14Z 23/15Z 23/16Z 23/17Z 23/18Z 23/19Z 23/20Z
Temp67 67 67 66 65 66 66 67 68 70 71 72 72
Dewpt61 61 59 61 60 62 62 62 61 61 60 61 61
Altim29.88 29.88 29.87 29.87 29.87 29.88 29.89 29.91 29.91 29.93 29.94 29.92 29.90
VIS10 10 10 10 10 9 10 10 10 10 10 10 10
CIG-- -- -- -- -- -- 130 10 12 -- -- -- --
CoverSCTSCTSCTSCTSCTSCTBKNBKNBKNSCTSCTFEWFEW
FltCatVFRVFRVFRVFRVFRVFRVFRMVFRMVFRVFRVFRVFRVFR
WX--------------------------
WDir00000240240240240260260250260
WSpd0 0 0 0 0 4 4 7 5 9 7 7 9
WGst-- -- -- -- -- -- -- -- -- -- -- -- --
Raw hourly METARs
KLAX 230753Z 00000KT 10SM SCT009 SCT100 19/16 A2988 RMK AO2 SLP117 T01940161 402330178
KLAX 230853Z 00000KT 10SM SCT009 19/16 A2988 RMK AO2 SLP114 T01940161 58004
KLAX 230953Z 00000KT 10SM SCT009 19/15 A2987 RMK AO2 SLP113 T01940150
KLAX 231053Z 00000KT 10SM SCT009 19/16 A2987 RMK AO2 SLP113 T01890161
KLAX 231153Z 00000KT 10SM SCT009 18/16 A2987 RMK AO2 SLP114 T01830156 10194 20183 56001
KLAX 231253Z 24004KT 9SM SCT010 19/17 A2988 RMK AO2 SLP117 T01890167
KLAX 231353Z 24004KT 10SM SCT010 BKN130 19/17 A2989 RMK AO2 SLP120 T01890167
KLAX 231453Z 24007KT 10SM BKN010 BKN130 19/17 A2991 RMK AO2 SLP127 T01940167 53013 $
KLAX 231553Z 24005KT 10SM BKN012 BKN130 20/16 A2991 RMK AO2 SLP128 T02000161 $
KLAX 231653Z 26009KT 10SM SCT015 SCT140 21/16 A2993 RMK AO2 SLP135 T02110161 $
KLAX 231753Z 26007KT 10SM SCT016 22/16 A2994 RMK AO2 SLP136 T02170156 10217 20183 51010 $
KLAX 231853Z 25007KT 10SM FEW013 FEW095 22/16 A2992 RMK AO2 SLP131 T02220161 $
KLAX 231953Z 26009KT 10SM FEW012 FEW095 22/16 A2990 RMK AO2 SLP124 T02220161 $



Page loaded:  20:42 UTC  |   01:42 PM Pacific  |   02:42 PM Mountain  |   03:42 PM Central  |   04:42 PM Eastern

 

ADVISORIES

FORECASTS

FORECASTS

OBSERVATIONS

USER TOOLS

ABOUT US